^^
Saratoga-Weather Station Historical Data
Daily Summary for January 10, 2021 Units:  English    Metric   Both
Daily Weekly Monthly Yearly Custom
  High: Low: Average:
Temperature: 77.4 °F 56.3 °F 65.3 °F
Dew Point: 63.1 °F 53.8 °F 57.9 °F
Humidity: 94% 50% 78%
Wind Speed: 16.1mph 0mph 1.1mph
Wind Gust: 18mph - -
Wind- - SSW
Pressure: 30.1 in 29.9 in -
Precipitation: 0.22 in    
Historical Graphs
 
 
Tabular Data for January 10, 2021
Time Temperature Dew Point Pressure Wind Wind Speed Wind Gust Humidity Rainfall Rate (Hourly) solar
00:02 64.2 °F 57.2 °F 30.1 in Calm     78% 0 in 0 W/m2
00:07 63.9 °F 56.8 °F 30.1 in Calm     78% 0 in 0 W/m2
00:12 63.7 °F 57 °F 30.1 in SW 2.9 mph 3 mph 79% 0 in 0 W/m2
00:17 63.3 °F 56.3 °F 30.1 in Calm   2 mph 78% 0 in 0 W/m2
00:22 63.3 °F 56.7 °F 30.1 in Calm   1 mph 79% 0 in 0 W/m2
00:27 63.1 °F 56.5 °F 30.1 in Calm     79% 0 in 0 W/m2
00:32 63 °F 56.3 °F 30.1 in Calm     79% 0 in 0 W/m2
00:37 62.8 °F 56.1 °F 30.1 in Calm     79% 0 in 0 W/m2
00:42 62.4 °F 56.1 °F 30.1 in Calm     80% 0 in 0 W/m2
00:47 62.2 °F 55.9 °F 30.1 in Calm     80% 0 in 0 W/m2
00:52 62.1 °F 56.1 °F 30.1 in Calm     81% 0 in 0 W/m2
00:57 61.9 °F 56.3 °F 30.1 in Calm     82% 0 in 0 W/m2
01:02 61.5 °F 55.9 °F 30.1 in Calm     82% 0 in 0 W/m2
01:07 61.3 °F 55.8 °F 30.1 in Calm     82% 0 in 0 W/m2
01:12 61.2 °F 55.6 °F 30.1 in Calm     82% 0 in 0 W/m2
01:17 61 °F 55.8 °F 30.1 in Calm     83% 0 in 0 W/m2
01:22 60.6 °F 55.8 °F 30.1 in Calm     84% 0 in 0 W/m2
01:27 60.4 °F 55.6 °F 30.1 in Calm     84% 0 in 0 W/m2
01:32 60.3 °F 55.4 °F 30.1 in Calm     84% 0 in 0 W/m2
01:37 60.1 °F 55.2 °F 30.1 in Calm     84% 0 in 0 W/m2
01:42 60.1 °F 55.6 °F 30.1 in Calm     85% 0 in 0 W/m2
01:47 59.9 °F 55.4 °F 30.1 in Calm     85% 0 in 0 W/m2
01:52 59.9 °F 55.8 °F 30.1 in Calm     86% 0 in 0 W/m2
01:57 59.9 °F 55.8 °F 30.1 in Calm     86% 0 in 0 W/m2
02:02 59.9 °F 55.8 °F 30.1 in Calm     86% 0 in 0 W/m2
02:07 59.7 °F 55.6 °F 30.1 in Calm     86% 0 in 0 W/m2
02:12 59.7 °F 55.6 °F 30.1 in Calm     86% 0 in 0 W/m2
02:17 59.7 °F 55.8 °F 30.1 in Calm     87% 0 in 0 W/m2
02:22 59.7 °F 55.6 °F 30.1 in Calm     86% 0 in 0 W/m2
02:27 59.5 °F 55.6 °F 30.1 in Calm     87% 0 in 0 W/m2
02:33 59.5 °F 55.6 °F 30.1 in Calm     87% 0 in 0 W/m2
02:38 59.4 °F 55.4 °F 30.1 in Calm     87% 0 in 0 W/m2
02:43 59.4 °F 55.4 °F 30.1 in Calm     87% 0 in 0 W/m2
02:48 59.2 °F 55.4 °F 30.1 in Calm     87% 0 in 0 W/m2
02:53 59 °F 55.2 °F 30.1 in Calm     87% 0 in 0 W/m2
02:58 58.8 °F 55 °F 30.1 in Calm     87% 0 in 0 W/m2
03:03 58.6 °F 54.9 °F 30.1 in Calm     87% 0 in 0 W/m2
03:08 58.5 °F 54.7 °F 30.1 in Calm     87% 0 in 0 W/m2
03:13 58.5 °F 54.7 °F 30.1 in Calm     87% 0 in 0 W/m2
03:18 58.3 °F 54.7 °F 30.1 in Calm     88% 0 in 0 W/m2
03:23 58.1 °F 54.5 °F 30.1 in Calm     88% 0 in 0 W/m2
03:28 58.1 °F 54.5 °F 30.1 in Calm     88% 0 in 0 W/m2
03:33 57.9 °F 54.3 °F 30.1 in Calm     88% 0 in 0 W/m2
03:38 57.7 °F 54.1 °F 30.1 in Calm     88% 0 in 0 W/m2
03:43 57.7 °F 54.1 °F 30.1 in Calm     88% 0 in 0 W/m2
03:48 57.6 °F 54 °F 30.1 in Calm     88% 0 in 0 W/m2
03:53 57.4 °F 54.1 °F 30.1 in Calm     89% 0 in 0 W/m2
03:58 57.4 °F 54.1 °F 30.1 in Calm     89% 0 in 0 W/m2
04:03 57 °F 53.8 °F 30.1 in Calm     89% 0 in 0 W/m2
04:08 57 °F 54.1 °F 30.1 in Calm     90% 0 in 0 W/m2
04:13 57 °F 54.1 °F 30.1 in Calm     90% 0 in 0 W/m2
04:18 56.8 °F 54 °F 30.1 in Calm     90% 0 in 0 W/m2
04:23 56.8 °F 54 °F 30.1 in Calm     90% 0 in 0 W/m2
04:28 56.8 °F 54 °F 30.1 in Calm     90% 0 in 0 W/m2
04:33 56.7 °F 54.1 °F 30.1 in Calm     91% 0 in 0 W/m2
04:38 56.7 °F 54.1 °F 30.1 in Calm     91% 0 in 0 W/m2
04:43 56.7 °F 54.1 °F 30.1 in Calm     91% 0 in 0 W/m2
04:48 56.7 °F 54.3 °F 30 in Calm     92% 0 in 0 W/m2
04:53 56.8 °F 54.5 °F 30.1 in Calm     92% 0 in 0 W/m2
04:58 56.8 °F 54.5 °F 30 in Calm     92% 0 in 0 W/m2
05:03 57 °F 54.7 °F 30 in SW 0.9 mph 2 mph 92% 0 in 0 W/m2
05:08 57.2 °F 54.9 °F 30 in Calm   1 mph 92% 0 in 0 W/m2
05:13 57.4 °F 55 °F 30 in Calm   2 mph 92% 0 in 0 W/m2
05:18 57.4 °F 54.9 °F 30 in Calm     91% 0 in 0 W/m2
05:23 57.2 °F 54.7 °F 30 in Calm     91% 0 in 0 W/m2
05:28 57 °F 54.5 °F 30 in Calm     91% 0 in 0 W/m2
05:33 57 °F 54.5 °F 30 in Calm     91% 0 in 0 W/m2
05:38 56.8 °F 54.3 °F 30 in Calm     91% 0 in 0 W/m2
05:43 56.8 °F 54.3 °F 30 in Calm     91% 0 in 5 W/m2
05:48 56.7 °F 54.1 °F 30 in Calm     91% 0 in 7 W/m2
05:53 56.5 °F 54 °F 30 in Calm     91% 0 in 11 W/m2
05:58 56.5 °F 54.1 °F 30 in Calm     92% 0 in 14 W/m2
06:03 56.3 °F 54 °F 30 in Calm     92% 0 in 19 W/m2
06:08 56.3 °F 54 °F 30 in SW 2 mph 2 mph 92% 0 in 25 W/m2
06:13 56.5 °F 54.5 °F 30 in West 0.9 mph 3 mph 93% 0 in 26 W/m2
06:18 56.5 °F 54.5 °F 30 in Calm   1 mph 93% 0 in 28 W/m2
06:23 56.7 °F 54.7 °F 30 in Calm   3 mph 93% 0 in 28 W/m2
06:28 56.7 °F 54.7 °F 30 in Calm     93% 0 in 28 W/m2
06:33 56.8 °F 54.5 °F 30 in Calm     92% 0 in 30 W/m2
06:38 56.8 °F 54.5 °F 30 in Calm     92% 0 in 32 W/m2
06:43 56.8 °F 54.5 °F 30 in Calm     92% 0 in 32 W/m2
06:48 56.8 °F 54.5 °F 30 in Calm     92% 0 in 33 W/m2
06:53 57 °F 54.7 °F 30 in Calm     92% 0 in 33 W/m2
06:58 57 °F 55 °F 30 in Calm     93% 0 in 35 W/m2
07:03 57 °F 55 °F 30 in Calm     93% 0 in 42 W/m2
07:08 57.2 °F 55.2 °F 30 in Calm     93% 0 in 47 W/m2
07:13 57.4 °F 55.4 °F 30 in Calm     93% 0 in 56 W/m2
07:18 57.6 °F 55.6 °F 30 in Calm     93% 0 in 58 W/m2
07:23 57.7 °F 55.8 °F 30 in Calm     93% 0 in 65 W/m2
07:28 57.9 °F 55.9 °F 30 in Calm     93% 0 in 67 W/m2
07:33 58.1 °F 56.1 °F 30 in Calm     93% 0 in 69 W/m2
07:38 58.5 °F 56.1 °F 30 in Calm     92% 0 in 76 W/m2
07:43 58.6 °F 56.3 °F 30 in Calm   2 mph 92% 0 in 81 W/m2
07:48 59.2 °F 56.8 °F 30 in Calm     92% 0 in 128 W/m2
07:53 59.5 °F 56.8 °F 30 in Calm     91% 0 in 232 W/m2
07:58 60.1 °F 57.4 °F 30 in Calm   1 mph 91% 0 in 214 W/m2
08:03 60.6 °F 57.7 °F 30 in Calm   1 mph 90% 0 in 186 W/m2
08:09 61.2 °F 57.9 °F 30 in Calm     89% 0 in 178 W/m2
08:14 61.5 °F 57.9 °F 30 in WNW 0.9 mph 2 mph 88% 0 in 116 W/m2
08:19 61.9 °F 57.9 °F 30 in Calm     87% 0 in 79 W/m2
08:24 62.4 °F 58.1 °F 30 in Calm   2 mph 86% 0 in 95 W/m2
08:29 62.8 °F 58.3 °F 30 in WNW 0.9 mph 1 mph 85% 0 in 97 W/m2
08:34 63 °F 58.5 °F 30 in Calm   1 mph 85% 0 in 104 W/m2
08:39 63.5 °F 58.8 °F 30 in Calm     85% 0 in 113 W/m2
08:44 64 °F 59.4 °F 30 in North 0.9 mph 1 mph 85% 0 in 113 W/m2
08:49 64.6 °F 59.4 °F 30 in NE 0.9 mph 1 mph 83% 0 in 118 W/m2
08:54 65.1 °F 59.5 °F 30 in ESE 2 mph 2 mph 82% 0 in 134 W/m2
08:59 65.5 °F 59.5 °F 30 in Calm   2 mph 81% 0 in 158 W/m2
09:04 65.8 °F 59.2 °F 30 in Calm   2 mph 79% 0 in 181 W/m2
09:09 66.2 °F 59.5 °F 30 in ENE 0.9 mph 1 mph 79% 0 in 244 W/m2
09:14 66.7 °F 59.4 °F 30 in ENE 2 mph 4 mph 77% 0 in 336 W/m2
09:19 67.1 °F 59.4 °F 30 in NE 2 mph 3 mph 76% 0 in 376 W/m2
09:24 66.7 °F 58.6 °F 30 in Calm   4 mph 75% 0 in 274 W/m2
09:29 66.7 °F 59 °F 30 in Calm   2 mph 76% 0 in 250 W/m2
09:34 66.7 °F 59.4 °F 30 in NE 0.9 mph 2 mph 77% 0 in 234 W/m2
09:39 66.9 °F 59.2 °F 30 in Calm   2 mph 76% 0 in 251 W/m2
09:44 67.1 °F 59.7 °F 30 in Calm   3 mph 77% 0 in 250 W/m2
09:49 67.3 °F 59.5 °F 30 in Calm   1 mph 76% 0 in 248 W/m2
09:54 66.9 °F 59.2 °F 30 in Calm   1 mph 76% 0 in 163 W/m2
09:59 66.9 °F 59.9 °F 30 in East 2.9 mph 3 mph 78% 0 in 221 W/m2
10:04 67.3 °F 59.9 °F 30 in East 2 mph 4 mph 77% 0 in 272 W/m2
10:09 67.5 °F 60.1 °F 30 in Calm   2 mph 77% 0 in 211 W/m2
10:14 67.8 °F 59.9 °F 30 in East 0.9 mph 4 mph 76% 0 in 197 W/m2
10:19 68.5 °F 59.9 °F 30 in ESE 4 mph 4 mph 74% 0 in 566 W/m2
10:24 69.1 °F 60.4 °F 30 in NE 0.9 mph 3 mph 74% 0 in 462 W/m2
10:29 69.6 °F 60.6 °F 30 in Calm   3 mph 73% 0 in 541 W/m2
10:34 70.2 °F 60.6 °F 30 in East 2.9 mph 3 mph 72% 0 in 417 W/m2
10:39 70.2 °F 59.9 °F 30 in East 2 mph 3 mph 70% 0 in 376 W/m2
10:44 70.3 °F 59.7 °F 30 in NNE 0.9 mph 4 mph 69% 0 in 527 W/m2
10:49 70.9 °F 59.4 °F 30 in ESE 0.9 mph 4 mph 67% 0 in 679 W/m2
10:54 71.6 °F 59.2 °F 30 in Calm     65% 0 in 710 W/m2
10:59 72.1 °F 60.6 °F 30 in SE 0.9 mph 4 mph 67% 0 in 705 W/m2
11:04 72.3 °F 59.9 °F 30 in ESE 2 mph 5 mph 65% 0 in 355 W/m2
11:09 72 °F 59.9 °F 30 in SSE 0.9 mph 2 mph 66% 0 in 323 W/m2
11:14 71.8 °F 59.7 °F 30 in NNW 0.9 mph 3 mph 66% 0 in 320 W/m2
11:19 71.8 °F 59.7 °F 30 in Calm   1 mph 66% 0 in 650 W/m2
11:24 72.1 °F 59.4 °F 30 in WNW 2 mph 3 mph 64% 0 in 322 W/m2
11:29 72.1 °F 59.4 °F 30 in East 2.9 mph 10 mph 64% 0 in 369 W/m2
11:34 71.8 °F 59.4 °F 30 in NW 2 mph 2 mph 65% 0 in 461 W/m2
11:39 71.8 °F 59.7 °F 30 in Calm   10 mph 66% 0 in 499 W/m2
11:44 72 °F 59.2 °F 30 in WNW 0.9 mph 2 mph 64% 0 in 325 W/m2
11:49 72 °F 59.2 °F 30 in WNW 2 mph 3 mph 64% 0 in 399 W/m2
11:54 72 °F 59.5 °F 30 in East 0.9 mph 3 mph 65% 0 in 350 W/m2
11:59 72.1 °F 59.7 °F 30 in Calm   1 mph 65% 0 in 294 W/m2
12:04 72.3 °F 59.5 °F 30 in Calm   1 mph 64% 0 in 366 W/m2
12:09 72.3 °F 59.5 °F 30 in WSW 0.9 mph 1 mph 64% 0 in 383 W/m2
12:14 72.5 °F 59.5 °F 30 in West 2.9 mph 4 mph 64% 0 in 390 W/m2
12:19 72.3 °F 59 °F 30 in Calm   1 mph 63% 0 in 485 W/m2
12:24 72.3 °F 60.3 °F 30 in West 0.9 mph 3 mph 66% 0 in 512 W/m2
12:29 72.5 °F 59.2 °F 30 in West 0.9 mph 2 mph 63% 0 in 512 W/m2
12:34 73 °F 60.1 °F 30 in Calm   3 mph 64% 0 in 694 W/m2
12:39 73.2 °F 58.5 °F 30 in Calm   2 mph 60% 0 in 387 W/m2
12:44 73.6 °F 59.4 °F 30 in East 2 mph 4 mph 61% 0 in 471 W/m2
12:49 73.8 °F 59 °F 30 in Calm   2 mph 60% 0 in 278 W/m2
12:54 73.9 °F 58.3 °F 30 in ESE 2 mph 2 mph 58% 0 in 236 W/m2
12:59 73.8 °F 58.1 °F 30 in ENE 0.9 mph 4 mph 58% 0 in 232 W/m2
13:04 73.6 °F 58.8 °F 30 in SSW 0.9 mph 2 mph 60% 0 in 218 W/m2
13:09 73.4 °F 59.5 °F 30 in Calm   4 mph 62% 0 in 243 W/m2
13:14 73.2 °F 58.5 °F 30 in NW 2 mph 3 mph 60% 0 in 371 W/m2
13:19 73.2 °F 59.4 °F 30 in West 2 mph 2 mph 62% 0 in 828 W/m2
13:24 73.4 °F 58.6 °F 30 in North 0.9 mph 1 mph 60% 0 in 360 W/m2
13:29 73.8 °F 57.6 °F 30 in NE 0.9 mph 4 mph 57% 0 in 362 W/m2
13:34 73.8 °F 58.1 °F 30 in Calm   3 mph 58% 0 in 302 W/m2
13:39 73.9 °F 57.7 °F 30 in East 0.9 mph 3 mph 57% 0 in 336 W/m2
13:44 74.7 °F 57.4 °F 30 in ENE 0.9 mph 3 mph 55% 0 in 591 W/m2
13:49 75 °F 56.1 °F 30 in East 0.9 mph 3 mph 52% 0 in 387 W/m2
13:55 75.7 °F 58.5 °F 30 in East 0.9 mph 2 mph 55% 0 in 554 W/m2
14:00 75.9 °F 59.2 °F 30 in NNW 0.9 mph 2 mph 56% 0 in 357 W/m2
14:05 75.9 °F 58.6 °F 30 in WNW 2 mph 4 mph 55% 0 in 877 W/m2
14:10 75.7 °F 57.9 °F 30 in WNW 4 mph 4 mph 54% 0 in 524 W/m2
14:15 75.6 °F 57.2 °F 30 in Calm   2 mph 53% 0 in 383 W/m2
14:20 75.7 °F 57.9 °F 29.9 in SSE 0.9 mph 2 mph 54% 0 in 536 W/m2
14:25 76.1 °F 59.2 °F 29.9 in NW 2 mph 3 mph 56% 0 in 429 W/m2
14:30 76.3 °F 58.5 °F 29.9 in East 0.9 mph 4 mph 54% 0 in 592 W/m2
14:35 75.9 °F 57 °F 29.9 in Calm   3 mph 52% 0 in 383 W/m2
14:40 75.9 °F 57.6 °F 29.9 in ENE 2.9 mph 5 mph 53% 0 in 360 W/m2
14:45 75.9 °F 56.5 °F 29.9 in East 2.9 mph 4 mph 51% 0 in 283 W/m2
14:50 75.9 °F 59.2 °F 29.9 in ENE 0.9 mph 5 mph 56% 0 in 299 W/m2
14:55 75.9 °F 58.1 °F 29.9 in Calm   4 mph 54% 0 in 350 W/m2
15:00 76.3 °F 57.9 °F 29.9 in WSW 0.9 mph 3 mph 53% 0 in 323 W/m2
15:05 75.9 °F 57.6 °F 29.9 in Calm   1 mph 53% 0 in 353 W/m2
15:10 76.1 °F 59.7 °F 29.9 in Calm   2 mph 57% 0 in 406 W/m2
15:15 76.3 °F 57.4 °F 29.9 in East 2 mph 7 mph 52% 0 in 345 W/m2
15:20 76.3 °F 57.9 °F 29.9 in Calm   4 mph 53% 0 in 396 W/m2
15:25 76.5 °F 58.1 °F 29.9 in West 2 mph 6 mph 53% 0 in 432 W/m2
15:30 76.8 °F 57.9 °F 29.9 in Calm   1 mph 52% 0 in 392 W/m2
15:40 77.4 °F 58.3 °F 29.9 in Calm   3 mph 52% 0 in 329 W/m2
15:45 76.8 °F 56.8 °F 29.9 in Calm   5 mph 50% 0 in 313 W/m2
15:50 77 °F 58.6 °F 29.9 in ENE 2.9 mph 4 mph 53% 0 in 257 W/m2
15:55 76.6 °F 57.7 °F 29.9 in NE 0.9 mph 4 mph 52% 0 in 197 W/m2
16:00 76.3 °F 57.4 °F 29.9 in ESE 0.9 mph 2 mph 52% 0 in 251 W/m2
16:05 76.1 °F 59.2 °F 29.9 in SE 2 mph 2 mph 56% 0 in 220 W/m2
16:10 75.9 °F 57.6 °F 29.9 in Calm   2 mph 53% 0 in 135 W/m2
16:15 75.9 °F 60.6 °F 29.9 in Calm   1 mph 59% 0 in 125 W/m2
16:20 75.7 °F 60.8 °F 29.9 in Calm   2 mph 60% 0 in 88 W/m2
16:25 75.6 °F 61.7 °F 29.9 in Calm     62% 0 in 74 W/m2
16:30 75.2 °F 62.2 °F 29.9 in SE 0.9 mph 1 mph 64% 0 in 62 W/m2
16:35 74.8 °F 61.9 °F 29.9 in SE 0.9 mph 1 mph 64% 0 in 72 W/m2
16:40 74.5 °F 61.5 °F 29.9 in SE 0.9 mph 2 mph 64% 0 in 105 W/m2
16:45 73.9 °F 61.9 °F 29.9 in Calm   1 mph 66% 0 in 105 W/m2
16:50 73.8 °F 61.3 °F 29.9 in Calm     65% 0 in 141 W/m2
16:55 73.8 °F 62.1 °F 29.9 in Calm   1 mph 67% 0 in 178 W/m2
17:00 73.8 °F 62.1 °F 29.9 in Calm     67% 0 in 243 W/m2
17:05 73.8 °F 59.9 °F 29.9 in Calm     62% 0 in 216 W/m2
17:10 74.1 °F 60.3 °F 29.9 in Calm     62% 0 in 200 W/m2
17:15 74.5 °F 62.4 °F 29.9 in Calm   2 mph 66% 0 in 292 W/m2
17:20 74.7 °F 59.4 °F 29.9 in Calm     59% 0 in 234 W/m2
17:25 75.2 °F 61.7 °F 29.9 in Calm   2 mph 63% 0 in 250 W/m2
17:30 75.4 °F 59 °F 29.9 in Calm     57% 0 in 315 W/m2
17:35 75.7 °F 60.8 °F 29.9 in SSE 0.9 mph 2 mph 60% 0 in 160 W/m2
17:40 75.7 °F 60.8 °F 29.9 in Calm     60% 0 in 105 W/m2
17:45 75.7 °F 61.9 °F 29.9 in Calm   1 mph 62% 0 in 84 W/m2
17:50 75.4 °F 63.1 °F 29.9 in Calm     66% 0 in 76 W/m2
17:55 74.8 °F 61.9 °F 29.9 in WSW 0.9 mph 2 mph 64% 0 in 63 W/m2
18:00 74.5 °F 63.1 °F 29.9 in WSW 0.9 mph 1 mph 68% 0 in 53 W/m2
18:05 73.9 °F 63.1 °F 29.9 in Calm   1 mph 69% 0 in 40 W/m2
18:10 73.6 °F 62.4 °F 29.9 in Calm   1 mph 68% 0 in 33 W/m2
18:15 72.9 °F 61.7 °F 29.9 in WSW 0.9 mph 3 mph 68% 0 in 28 W/m2
18:20 72.1 °F 61.3 °F 29.9 in West 2 mph 4 mph 69% 0 in 21 W/m2
18:25 70.9 °F 61 °F 29.9 in West 2.9 mph 6 mph 71% 0.02 in 23 W/m2
18:30 69.3 °F 61 °F 29.9 in West 4 mph 4 mph 75% 0.02 in 19 W/m2
18:35 68 °F 60.8 °F 29.9 in WNW 2 mph 6 mph 78% 0.02 in 16 W/m2
18:40 67.3 °F 61 °F 29.9 in West 2.9 mph 6 mph 80% 0.05 in 12 W/m2
18:45 66.6 °F 61 °F 29.9 in WNW 4 mph 7 mph 82% 0.06 in 12 W/m2
18:50 65.7 °F 60.4 °F 29.9 in West 6 mph 7 mph 83% 0.08 in 11 W/m2
18:55 64.9 °F 60.3 °F 29.9 in NNW 16.1 mph 18 mph 85% 0.09 in 9 W/m2
19:00 63.7 °F 59.7 °F 29.9 in WSW 8.1 mph 14 mph 87% 0.12 in 9 W/m2
19:05 62.8 °F 59.5 °F 29.9 in WSW 16 mph 16 mph 89% 0.16 in 16 W/m2
19:10 62.4 °F 59.7 °F 29.9 in NNW 4.9 mph 11 mph 91% 0.17 in 25 W/m2
19:15 62.2 °F 59.9 °F 29.9 in West 6 mph 11 mph 92% 0.2 in 44 W/m2
19:20 62.1 °F 59.7 °F 29.9 in WSW 8.1 mph 11 mph 92% 0.21 in 74 W/m2
19:25 62.1 °F 59.7 °F 29.9 in NW 6 mph 8 mph 92% 0.2 in 74 W/m2
19:30 62.1 °F 60.1 °F 29.9 in WSW 4 mph 8 mph 93% 0.2 in 54 W/m2
19:35 62.1 °F 60.1 °F 29.9 in NW 2 mph 8 mph 93% 0.2 in 46 W/m2
19:40 62.1 °F 60.1 °F 29.9 in West 2 mph 8 mph 93% 0.17 in 47 W/m2
19:45 62.2 °F 60.3 °F 29.9 in NW 2.9 mph 8 mph 93% 0.16 in 51 W/m2
19:50 62.2 °F 60.3 °F 29.9 in WNW 4 mph 8 mph 93% 0.14 in 40 W/m2
19:55 62.2 °F 60.3 °F 29.9 in West 6.9 mph 8 mph 93% 0.13 in 32 W/m2
20:01 62.2 °F 60.3 °F 29.9 in WSW 8.1 mph 8 mph 93% 0.1 in 25 W/m2
20:06 62.1 °F 60.1 °F 29.9 in WNW 4 mph 6 mph 93% 0.06 in 19 W/m2
20:11 61.9 °F 59.9 °F 29.9 in WSW 4 mph 9 mph 93% 0.05 in 18 W/m2
20:16 61.9 °F 59.5 °F 29.9 in West 6 mph 7 mph 92% 0.02 in 21 W/m2
20:21 61.5 °F 59.2 °F 29.9 in West 2.9 mph 7 mph 92% 0.01 in 18 W/m2
20:26 61.3 °F 59 °F 29.9 in West 6 mph 7 mph 92% 0.01 in 16 W/m2
20:31 61.3 °F 59 °F 29.9 in WNW 4 mph 8 mph 92% 0 in 18 W/m2
20:36 61.2 °F 58.8 °F 29.9 in West 2 mph 7 mph 92% 0 in 23 W/m2
20:41 61.2 °F 58.8 °F 29.9 in West 4 mph 7 mph 92% 0 in 26 W/m2
20:46 61.2 °F 58.8 °F 29.9 in WSW 2 mph 4 mph 92% 0 in 33 W/m2
20:51 61.2 °F 58.8 °F 29.9 in SW 2 mph 3 mph 92% 0 in 32 W/m2
20:56 61 °F 58.6 °F 29.9 in SW 0.9 mph 2 mph 92% 0 in 30 W/m2
21:01 61 °F 58.6 °F 29.9 in Calm     92% 0 in 30 W/m2
21:06 61 °F 59 °F 29.9 in Calm     93% 0 in 42 W/m2
21:11 61.2 °F 59.2 °F 29.9 in Calm     93% 0 in 37 W/m2
21:16 61.2 °F 59.4 °F 29.9 in Calm     94% 0 in 23 W/m2
21:21 61.2 °F 59.2 °F 29.9 in Calm     93% 0 in 21 W/m2
21:26 61 °F 59 °F 29.9 in Calm     93% 0 in 16 W/m2
21:31 60.6 °F 58.6 °F 29.9 in Calm     93% 0 in 9 W/m2
21:36 60.6 °F 58.6 °F 29.9 in WSW 2.9 mph 6 mph 93% 0 in 5 W/m2
21:41 60.4 °F 58.5 °F 29.9 in West 6 mph 8 mph 93% 0 in 5 W/m2
21:46 60.4 °F 58.5 °F 29.9 in WSW 2 mph 5 mph 93% 0 in 0 W/m2
21:51 60.4 °F 58.5 °F 29.9 in West 4 mph 5 mph 93% 0 in 0 W/m2
21:56 60.4 °F 58.5 °F 30 in WNW 4.9 mph 8 mph 93% 0 in 0 W/m2
22:01 60.4 °F 58.5 °F 30 in NW 2.9 mph 4 mph 93% 0 in 0 W/m2
22:06 60.4 °F 58.1 °F 30 in WNW 0.9 mph 3 mph 92% 0 in 0 W/m2
22:11 60.4 °F 58.1 °F 30 in Calm   1 mph 92% 0 in 0 W/m2
22:16 60.6 °F 58.3 °F 30 in Calm     92% 0 in 0 W/m2
22:21 60.6 °F 58.6 °F 30 in WNW 0.9 mph 4 mph 93% 0 in 0 W/m2
22:26 60.4 °F 58.1 °F 30 in Calm   1 mph 92% 0 in 0 W/m2
22:31 60.6 °F 58.6 °F 30 in Calm     93% 0 in 0 W/m2
22:37 60.4 °F 58.5 °F 30 in NE 0.9 mph 2 mph 93% 0 in 0 W/m2
22:42 60.3 °F 58.3 °F 30 in Calm   1 mph 93% 0 in 0 W/m2
22:47 60.3 °F 58.3 °F 30 in Calm   2 mph 93% 0 in 0 W/m2
22:52 60.3 °F 58.3 °F 30 in WSW 2.9 mph 3 mph 93% 0 in 0 W/m2
22:57 60.1 °F 58.1 °F 30 in WSW 0.9 mph 3 mph 93% 0 in 0 W/m2
Juneau County Weather
Compliments of Weather Underground - 4 mb